Terminal Aerodrome Forecast
Issued by NWS

Home | Current Version | Previous Version | Text Only | Print | Product List | Glossary On
Versions: 1 2 3 4 5 6 7 8 9 10 11 12 13 14 15
712
FTUS44 KTSA 202323
TAFBVO
TAF
KBVO 202323Z 2100/2124 11015KT P6SM SCT250
     FM210100 12005KT P6SM BKN250
     FM210700 10006KT P6SM -SHRA OVC080
     FM211200 07007KT 5SM -RA BR OVC020=

USA.gov is the U.S. government's official web portal to all federal, state and local government web resources and services.